createdAt,value
2023-03-05T00:02:00.342Z,16.40
2023-03-05T00:04:32.323Z,16.10
2023-03-05T00:07:04.034Z,13.60
2023-03-05T00:09:35.993Z,13.40
2023-03-05T00:12:09.158Z,11.80
2023-03-05T00:14:40.705Z,13.10
2023-03-05T00:17:12.553Z,11.00
2023-03-05T00:19:44.432Z,12.00
2023-03-05T00:22:16.066Z,11.70
2023-03-05T00:24:48.173Z,11.20
2023-03-05T00:27:19.672Z,11.00
2023-03-05T00:29:51.405Z,11.80
2023-03-05T00:32:23.668Z,11.60
2023-03-05T00:34:55.421Z,13.20
2023-03-05T00:37:27.534Z,11.60
2023-03-05T00:39:59.520Z,12.40
2023-03-05T00:42:31.200Z,11.80
2023-03-05T00:45:03.614Z,11.40
2023-03-05T00:47:37.389Z,11.30
2023-03-05T00:50:11.648Z,11.00
2023-03-05T00:52:43.301Z,10.60
2023-03-05T00:55:15.344Z,10.60
2023-03-05T00:57:47.010Z,9.70
2023-03-05T01:00:20.146Z,9.90
2023-03-05T01:02:52.103Z,9.70
2023-03-05T01:05:24.430Z,9.40
2023-03-05T01:07:57.655Z,9.20
2023-03-05T01:10:30.470Z,8.90
2023-03-05T01:13:02.448Z,9.40
2023-03-05T01:15:34.328Z,8.30
2023-03-05T01:18:06.904Z,10.40
2023-03-05T01:20:38.968Z,10.20
2023-03-05T01:23:11.210Z,10.20
2023-03-05T01:25:43.400Z,10.20
2023-03-05T01:28:15.161Z,8.90
2023-03-05T01:30:46.664Z,8.60
2023-03-05T01:33:18.545Z,9.40
2023-03-05T01:35:51.680Z,9.00
2023-03-05T01:38:24.956Z,8.10
2023-03-05T01:40:57.003Z,7.60
2023-03-05T01:43:31.441Z,8.30
2023-03-05T01:46:31.595Z,8.10
2023-03-05T01:49:24.715Z,7.10
2023-03-05T01:52:01.631Z,6.80
2023-03-05T01:54:38.424Z,7.60
2023-03-05T01:57:14.230Z,8.10
2023-03-05T01:59:47.950Z,7.80
2023-03-05T02:02:22.283Z,7.10
2023-03-05T02:04:58.994Z,7.50
2023-03-05T02:07:31.692Z,6.90
2023-03-05T02:10:03.296Z,6.40
2023-03-05T02:12:35.433Z,6.60
2023-03-05T02:15:09.271Z,6.50
2023-03-05T02:17:41.160Z,6.50
2023-03-05T02:20:19.021Z,7.10
2023-03-05T02:22:53.251Z,6.50
2023-03-05T02:25:27.832Z,6.60
2023-03-05T02:28:05.538Z,6.20
2023-03-05T02:30:37.715Z,6.70
2023-03-05T02:33:09.586Z,5.90
2023-03-05T02:35:41.268Z,5.80
2023-03-05T02:38:13.135Z,6.00
2023-03-05T02:40:45.789Z,4.90
2023-03-05T02:43:17.292Z,5.50
2023-03-05T02:45:48.730Z,4.60
2023-03-05T02:48:20.800Z,5.30
2023-03-05T02:50:53.334Z,5.30
2023-03-05T02:53:26.696Z,5.00
2023-03-05T02:55:58.297Z,4.60
2023-03-05T02:58:30.704Z,4.10
2023-03-05T03:01:02.844Z,4.70
2023-03-05T03:03:34.652Z,4.70
2023-03-05T03:06:07.581Z,4.70
2023-03-05T03:08:39.199Z,4.40
2023-03-05T03:11:12.893Z,4.40
2023-03-05T03:13:45.348Z,3.70
2023-03-05T03:16:18.207Z,4.60
2023-03-05T03:18:49.847Z,4.80
2023-03-05T03:21:24.454Z,3.70
2023-03-05T03:23:56.893Z,4.10
2023-03-05T03:26:29.412Z,4.40
2023-03-05T03:29:01.601Z,4.50
2023-03-05T03:31:33.397Z,4.40
2023-03-05T03:34:05.122Z,4.10
2023-03-05T03:36:37.327Z,4.50
2023-03-05T03:39:11.756Z,4.10
2023-03-05T03:41:46.989Z,4.40
2023-03-05T03:44:19.384Z,4.80
2023-03-05T03:46:51.961Z,4.40
2023-03-05T03:49:26.887Z,4.60
2023-03-05T03:51:59.042Z,4.00
2023-03-05T03:54:30.621Z,4.50
2023-03-05T03:57:03.053Z,5.30
2023-03-05T03:59:34.799Z,4.30
2023-03-05T04:02:07.204Z,4.50
2023-03-05T04:04:39.014Z,4.20
2023-03-05T04:07:10.847Z,4.50
2023-03-05T04:09:42.473Z,4.50
2023-03-05T04:12:18.324Z,4.20
2023-03-05T04:14:50.787Z,4.30
2023-03-05T04:17:22.667Z,4.40
2023-03-05T04:19:55.458Z,4.00
2023-03-05T04:22:27.590Z,4.20
2023-03-05T04:25:00.575Z,4.30
2023-03-05T04:27:32.284Z,4.20
2023-03-05T04:30:24.971Z,4.20
2023-03-05T04:33:09.872Z,4.40
2023-03-05T04:35:50.313Z,5.20
2023-03-05T04:38:22.280Z,5.40
2023-03-05T04:40:54.067Z,5.50
2023-03-05T04:43:26.276Z,6.00
2023-03-05T04:45:58.466Z,5.90
2023-03-05T04:48:30.204Z,5.30
2023-03-05T04:51:02.025Z,5.50
2023-03-05T04:53:33.635Z,4.70
2023-03-05T04:56:05.453Z,4.50
2023-03-05T04:58:37.255Z,4.70
2023-03-05T05:01:10.361Z,4.10
2023-03-05T05:03:42.055Z,4.50
2023-03-05T05:06:15.378Z,4.70
2023-03-05T05:08:47.115Z,5.60
2023-03-05T05:11:19.735Z,5.20
2023-03-05T05:13:52.895Z,5.30
2023-03-05T05:16:25.260Z,5.60
2023-03-05T05:18:56.890Z,6.60
2023-03-05T05:21:28.645Z,6.70
2023-03-05T05:24:00.762Z,5.70
2023-03-05T05:26:33.085Z,7.40
2023-03-05T05:29:05.045Z,8.00
2023-03-05T05:31:36.811Z,8.40
2023-03-05T05:34:08.390Z,7.40
2023-03-05T05:36:41.823Z,8.40
2023-03-05T05:39:13.846Z,8.20
2023-03-05T05:41:45.487Z,8.80
2023-03-05T05:44:17.272Z,9.40
2023-03-05T05:46:49.132Z,10.60
2023-03-05T05:49:21.435Z,10.80
2023-03-05T05:51:53.119Z,10.40
2023-03-05T05:54:25.413Z,10.70
2023-03-05T05:56:57.046Z,10.80
2023-03-05T05:59:29.854Z,11.50
2023-03-05T06:02:01.895Z,11.70
2023-03-05T06:04:34.983Z,12.10
2023-03-05T06:07:11.108Z,13.00
2023-03-05T06:09:42.605Z,13.40
2023-03-05T06:12:14.242Z,14.20
2023-03-05T06:14:45.921Z,15.90
2023-03-05T06:17:28.685Z,13.70
2023-03-05T06:20:02.602Z,11.80
2023-03-05T06:22:37.562Z,11.10
2023-03-05T06:25:11.855Z,10.70
2023-03-05T06:27:43.409Z,10.50
2023-03-05T06:30:16.696Z,9.90
2023-03-05T06:32:49.078Z,10.30
2023-03-05T06:35:22.364Z,10.60
2023-03-05T06:37:54.045Z,10.10
2023-03-05T06:40:26.252Z,9.10
2023-03-05T06:42:57.937Z,9.40
2023-03-05T06:45:29.683Z,10.60
2023-03-05T06:48:01.378Z,12.10
2023-03-05T06:50:35.769Z,11.40
2023-03-05T06:53:08.300Z,9.50
2023-03-05T06:55:41.250Z,9.70
2023-03-05T06:58:12.910Z,10.50
2023-03-05T07:00:44.875Z,10.80
2023-03-05T07:03:17.364Z,11.60
2023-03-05T07:05:49.013Z,12.70
2023-03-05T07:08:21.448Z,13.50
2023-03-05T07:10:53.562Z,12.30
2023-03-05T07:13:25.316Z,11.80
2023-03-05T07:15:57.007Z,11.00
2023-03-05T07:18:29.113Z,11.40
2023-03-05T07:21:05.587Z,11.60
2023-03-05T07:23:37.805Z,11.90
2023-03-05T07:26:10.497Z,11.90
2023-03-05T07:28:43.276Z,12.90
2023-03-05T07:31:19.372Z,13.00
2023-03-05T07:33:52.433Z,13.50
2023-03-05T07:36:26.422Z,14.90
2023-03-05T07:38:59.955Z,15.10
2023-03-05T07:41:31.488Z,13.30
2023-03-05T07:44:03.551Z,13.40
2023-03-05T07:46:36.462Z,13.50
2023-03-05T07:49:08.495Z,13.20
2023-03-05T07:51:41.832Z,14.50
2023-03-05T07:54:14.948Z,13.80
2023-03-05T07:56:46.969Z,13.80
2023-03-05T07:59:18.850Z,12.20
2023-03-05T08:01:51.063Z,13.10
2023-03-05T08:04:22.880Z,11.50
2023-03-05T08:06:56.256Z,11.40
2023-03-05T08:09:27.918Z,11.50
2023-03-05T08:12:00.087Z,11.00
2023-03-05T08:14:31.830Z,10.50
2023-03-05T08:17:03.501Z,11.30
2023-03-05T08:19:35.587Z,11.30
2023-03-05T08:22:07.216Z,11.50
2023-03-05T08:24:39.014Z,12.60
2023-03-05T08:27:10.809Z,12.10
2023-03-05T08:29:42.538Z,12.10
2023-03-05T08:32:14.634Z,10.30
2023-03-05T08:34:46.913Z,10.20
2023-03-05T08:37:18.483Z,10.50
2023-03-05T08:39:50.531Z,9.70
2023-03-05T08:42:22.057Z,10.40
2023-03-05T08:44:54.079Z,10.20
2023-03-05T08:47:27.221Z,9.90
2023-03-05T08:49:59.110Z,10.20
2023-03-05T08:52:30.706Z,9.20
2023-03-05T08:55:04.359Z,10.60
2023-03-05T08:57:36.277Z,10.40
2023-03-05T09:00:10.727Z,9.70
2023-03-05T09:02:42.466Z,9.80
2023-03-05T09:05:15.949Z,8.60
2023-03-05T09:07:47.747Z,9.10
2023-03-05T09:10:19.555Z,8.60
2023-03-05T09:12:51.644Z,8.80
2023-03-05T09:15:23.482Z,8.50
2023-03-05T09:17:55.034Z,9.00
2023-03-05T09:20:27.279Z,8.10
2023-03-05T09:22:59.440Z,8.40
2023-03-05T09:25:31.201Z,8.20
2023-03-05T09:28:02.752Z,8.30
2023-03-05T09:30:35.484Z,8.40
2023-03-05T09:33:07.480Z,8.50
2023-03-05T09:35:39.514Z,9.60
2023-03-05T09:38:11.081Z,7.50
2023-03-05T09:40:50.991Z,7.70
2023-03-05T09:43:32.885Z,7.50
2023-03-05T09:46:19.955Z,6.80
2023-03-05T09:48:56.668Z,11.90
2023-03-05T09:51:31.111Z,8.80
2023-03-05T09:54:09.030Z,7.60
2023-03-05T09:56:46.418Z,9.10
2023-03-05T09:59:27.804Z,7.40
2023-03-05T10:02:03.140Z,6.60
2023-03-05T10:04:46.436Z,5.90
2023-03-05T10:07:22.772Z,6.10
2023-03-05T10:09:59.805Z,11.70
2023-03-05T10:12:43.819Z,8.60
2023-03-05T10:15:22.946Z,6.30
2023-03-05T10:18:06.261Z,5.80
2023-03-05T10:20:51.140Z,6.00
2023-03-05T10:23:35.746Z,6.90
2023-03-05T10:26:15.532Z,9.70
2023-03-05T10:29:06.608Z,13.00
2023-03-05T10:31:50.781Z,15.10
2023-03-05T10:34:41.851Z,15.00
2023-03-05T10:37:40.845Z,18.50
2023-03-05T10:40:22.658Z,10.50
2023-03-05T10:43:04.834Z,16.00
2023-03-05T10:45:42.103Z,13.60
2023-03-05T10:48:23.113Z,14.80
2023-03-05T10:51:03.061Z,13.30
2023-03-05T10:53:38.368Z,23.60
2023-03-05T10:56:13.049Z,21.00
2023-03-05T10:58:45.380Z,18.20
2023-03-05T11:01:28.478Z,18.70
2023-03-05T11:04:04.524Z,14.80
2023-03-05T11:06:42.217Z,16.50
2023-03-05T11:09:24.525Z,23.60
2023-03-05T11:12:16.503Z,17.20
2023-03-05T11:15:04.659Z,15.10
2023-03-05T11:17:39.037Z,10.90
2023-03-05T11:20:35.116Z,11.10
2023-03-05T11:23:15.660Z,10.90
2023-03-05T11:26:02.545Z,11.70
2023-03-05T11:28:37.774Z,12.90
2023-03-05T11:31:26.063Z,12.70
2023-03-05T11:34:08.765Z,12.70
2023-03-05T11:36:42.621Z,13.40
2023-03-05T11:39:20.424Z,12.30
2023-03-05T11:41:55.248Z,11.00
2023-03-05T11:47:07.323Z,10.20
2023-03-05T11:49:46.573Z,11.10
2023-03-05T11:52:24.869Z,10.90
2023-03-05T11:55:05.590Z,11.50
2023-03-05T11:57:45.982Z,10.70
2023-03-05T12:00:19.938Z,10.70
2023-03-05T12:02:58.199Z,12.20
2023-03-05T12:05:32.292Z,13.40
2023-03-05T12:08:06.161Z,11.20
2023-03-05T12:10:38.461Z,10.90
2023-03-05T12:13:15.611Z,14.50
2023-03-05T12:16:01.149Z,14.50
2023-03-05T12:18:40.826Z,13.10
2023-03-05T12:21:28.603Z,15.00
2023-03-05T12:24:05.995Z,14.50
2023-03-05T12:27:10.429Z,14.80
2023-03-05T12:29:57.771Z,8.80
2023-03-05T12:32:57.062Z,7.40
2023-03-05T12:35:37.510Z,6.50
2023-03-05T12:38:33.038Z,6.20
2023-03-05T12:44:19.845Z,8.00
2023-03-05T12:47:31.433Z,7.50
2023-03-05T12:50:05.720Z,7.50
2023-03-05T12:52:41.395Z,7.30
2023-03-05T12:55:32.198Z,7.70
2023-03-05T12:58:12.383Z,8.20
2023-03-05T13:00:50.266Z,7.80
2023-03-05T13:03:29.695Z,8.10
2023-03-05T13:06:07.460Z,8.50
2023-03-05T13:08:43.788Z,7.80
2023-03-05T13:11:26.181Z,14.20
2023-03-05T13:14:00.837Z,11.50
2023-03-05T13:16:39.301Z,31.20
2023-03-05T13:19:21.643Z,19.20
2023-03-05T13:22:04.282Z,15.20
2023-03-05T13:24:38.722Z,14.70
2023-03-05T13:27:31.583Z,13.80
2023-03-05T13:30:03.706Z,12.80
2023-03-05T13:32:40.894Z,18.90
2023-03-05T13:35:21.642Z,21.20
2023-03-05T13:37:55.288Z,17.70
2023-03-05T13:40:31.201Z,17.80
2023-03-05T13:43:21.284Z,20.40
2023-03-05T13:45:59.396Z,20.80
2023-03-05T13:48:33.156Z,23.20
2023-03-05T13:51:07.541Z,22.10
2023-03-05T13:53:41.509Z,25.40
2023-03-05T13:56:19.729Z,24.50
2023-03-05T13:58:56.351Z,24.90
2023-03-05T14:01:37.172Z,24.80
2023-03-05T14:04:21.280Z,25.10
2023-03-05T14:07:00.014Z,26.70
2023-03-05T14:09:47.657Z,26.60
2023-03-05T14:12:36.509Z,28.70
2023-03-05T14:15:24.792Z,27.40
2023-03-05T14:18:19.268Z,26.90
2023-03-05T14:21:08.516Z,21.00
2023-03-05T14:23:46.278Z,18.70
2023-03-05T14:26:37.178Z,17.90
2023-03-05T14:29:21.907Z,17.90
2023-03-05T14:31:57.807Z,21.90
2023-03-05T14:34:35.497Z,17.70
2023-03-05T14:37:23.057Z,18.10
2023-03-05T14:40:01.005Z,14.40
2023-03-05T14:42:39.345Z,13.90
2023-03-05T14:45:20.627Z,12.70
2023-03-05T14:47:55.737Z,15.30
2023-03-05T14:50:34.550Z,13.80
2023-03-05T14:53:09.531Z,11.10
2023-03-05T14:58:19.500Z,14.40
2023-03-05T15:00:55.140Z,13.20
2023-03-05T15:03:31.888Z,18.00
2023-03-05T15:06:09.304Z,15.10
2023-03-05T15:08:43.556Z,17.70
2023-03-05T15:11:19.655Z,16.30
2023-03-05T15:13:53.424Z,16.00
2023-03-05T15:16:28.302Z,15.60
2023-03-05T15:19:09.288Z,18.70
2023-03-05T15:21:43.846Z,24.00
2023-03-05T15:24:17.372Z,28.30
2023-03-05T15:26:51.979Z,21.30
2023-03-05T15:29:25.297Z,20.40
2023-03-05T15:32:00.577Z,19.40
2023-03-05T15:34:36.523Z,16.00
2023-03-05T15:37:13.326Z,16.00
2023-03-05T15:39:47.867Z,13.30
2023-03-05T15:42:20.154Z,13.90
2023-03-05T15:44:54.212Z,22.00
2023-03-05T15:47:28.512Z,34.00
2023-03-05T15:50:02.510Z,25.50
2023-03-05T15:52:36.996Z,18.70
2023-03-05T15:55:12.847Z,18.50
2023-03-05T15:57:48.363Z,18.80
2023-03-05T16:00:28.926Z,17.70
2023-03-05T16:03:03.752Z,17.40
2023-03-05T16:08:16.474Z,16.40
2023-03-05T16:10:59.967Z,17.90
2023-03-05T16:13:35.191Z,19.90
2023-03-05T16:16:10.374Z,20.10
2023-03-05T16:18:55.179Z,21.20
2023-03-05T16:21:30.004Z,21.70
2023-03-05T16:24:04.361Z,23.10
2023-03-05T16:26:40.778Z,23.80
2023-03-05T16:29:17.118Z,29.50
2023-03-05T16:31:51.292Z,45.70
2023-03-05T16:34:28.432Z,29.60
2023-03-05T16:37:03.037Z,38.00
2023-03-05T16:39:41.260Z,42.40
2023-03-05T16:42:14.951Z,30.80
2023-03-05T16:44:50.875Z,26.10
2023-03-05T16:47:28.304Z,24.90
2023-03-05T16:50:09.461Z,21.60
2023-03-05T16:52:46.839Z,19.60
2023-03-05T16:55:21.409Z,20.20
2023-03-05T16:57:55.574Z,18.20
2023-03-05T17:00:34.689Z,19.90
2023-03-05T17:03:12.793Z,21.00
2023-03-05T17:05:47.248Z,20.10
2023-03-05T17:08:22.846Z,22.00
2023-03-05T17:10:59.959Z,22.80
2023-03-05T17:13:34.684Z,26.60
2023-03-05T17:18:42.869Z,32.60
2023-03-05T17:21:20.559Z,39.30
2023-03-05T17:24:01.968Z,38.30
2023-03-05T17:26:37.297Z,32.60
2023-03-05T17:29:12.466Z,34.80
2023-03-05T17:31:47.251Z,55.50
2023-03-05T17:34:35.687Z,43.50
2023-03-05T17:37:12.075Z,50.50
2023-03-05T17:39:46.208Z,46.30
2023-03-05T17:42:23.530Z,28.50
2023-03-05T17:45:00.421Z,29.30
2023-03-05T17:47:37.122Z,29.20
2023-03-05T17:50:16.069Z,26.10
2023-03-05T17:52:52.121Z,22.00
2023-03-05T17:55:30.770Z,20.70
2023-03-05T17:58:06.262Z,21.60
2023-03-05T18:00:41.929Z,23.00
2023-03-05T18:03:16.582Z,23.80
2023-03-05T18:05:52.237Z,23.00
2023-03-05T18:08:26.662Z,18.30
2023-03-05T18:11:03.013Z,20.20
2023-03-05T18:13:38.308Z,19.50
2023-03-05T18:16:15.174Z,19.40
2023-03-05T18:18:49.193Z,21.80
2023-03-05T18:21:29.113Z,24.20
2023-03-05T18:24:06.819Z,24.00
2023-03-05T18:26:40.956Z,23.50
2023-03-05T18:29:20.062Z,23.90
2023-03-05T18:31:54.522Z,23.00
2023-03-05T18:34:35.402Z,24.80
2023-03-05T18:37:22.953Z,24.40
2023-03-05T18:39:58.426Z,24.70
2023-03-05T18:42:40.218Z,28.30
2023-03-05T18:45:22.634Z,28.80
2023-03-05T18:47:59.545Z,24.80
2023-03-05T18:50:38.297Z,24.80
2023-03-05T18:53:14.730Z,26.80
2023-03-05T18:55:49.742Z,25.90
2023-03-05T18:58:28.796Z,25.20
2023-03-05T19:01:03.669Z,26.50
2023-03-05T19:03:40.747Z,26.00
2023-03-05T19:06:14.808Z,31.10
2023-03-05T19:08:53.918Z,24.20
2023-03-05T19:11:28.470Z,22.40
2023-03-05T19:14:02.828Z,22.50
2023-03-05T19:16:44.440Z,22.30
2023-03-05T19:19:23.588Z,23.50
2023-03-05T19:22:00.402Z,23.70
2023-03-05T19:24:37.549Z,31.70
2023-03-05T19:27:27.413Z,27.10
2023-03-05T19:30:01.367Z,26.40
2023-03-05T19:32:40.791Z,22.60
2023-03-05T19:35:20.389Z,22.10
2023-03-05T19:37:54.022Z,21.80
2023-03-05T19:40:30.930Z,21.80
2023-03-05T19:43:10.268Z,24.90
2023-03-05T19:45:45.964Z,29.30
2023-03-05T19:48:20.881Z,41.60
2023-03-05T19:50:58.436Z,42.90
2023-03-05T19:53:43.009Z,48.90
2023-03-05T19:56:17.072Z,47.10
2023-03-05T19:58:51.999Z,43.20
2023-03-05T20:01:27.408Z,47.40
2023-03-05T20:04:04.697Z,46.50
2023-03-05T20:06:43.282Z,45.00
2023-03-05T20:09:17.850Z,47.50
2023-03-05T20:11:52.461Z,45.70
2023-03-05T20:14:26.675Z,47.70
2023-03-05T20:17:00.141Z,48.50
2023-03-05T20:19:34.674Z,47.90
2023-03-05T20:24:56.068Z,36.60
2023-03-05T20:27:29.975Z,34.60
2023-03-05T20:30:04.820Z,34.50
2023-03-05T20:32:40.238Z,34.70
2023-03-05T20:35:17.528Z,35.60
2023-03-05T20:38:13.182Z,34.30
2023-03-05T20:40:47.658Z,38.90
2023-03-05T20:43:22.867Z,37.10
2023-03-05T20:46:00.942Z,43.80
2023-03-05T20:48:37.179Z,41.90
2023-03-05T20:51:23.622Z,37.90
2023-03-05T20:53:59.412Z,39.70
2023-03-05T20:56:43.726Z,38.30
2023-03-05T20:59:18.517Z,39.30
2023-03-05T21:04:23.475Z,35.90
2023-03-05T21:06:59.667Z,39.30
2023-03-05T21:09:38.402Z,36.70
2023-03-05T21:12:14.989Z,39.40
2023-03-05T21:14:48.195Z,36.60
2023-03-05T21:17:21.009Z,35.20
2023-03-05T21:19:56.279Z,34.50
2023-03-05T21:22:29.936Z,34.30
2023-03-05T21:25:16.510Z,33.30
2023-03-05T21:27:51.961Z,31.30
2023-03-05T21:30:33.959Z,29.60
2023-03-05T21:33:09.884Z,30.80
2023-03-05T21:35:42.912Z,33.40
2023-03-05T21:38:18.386Z,33.00
2023-03-05T21:40:58.248Z,29.80
2023-03-05T21:43:34.371Z,28.00
2023-03-05T21:46:07.828Z,32.50
2023-03-05T21:48:41.539Z,26.50
2023-03-05T21:51:14.971Z,27.40
2023-03-05T21:53:46.712Z,25.50
2023-03-05T21:56:24.733Z,27.30
2023-03-05T21:59:00.857Z,23.70
2023-03-05T22:01:33.563Z,24.80
2023-03-05T22:04:05.475Z,24.60
2023-03-05T22:06:37.488Z,23.90
2023-03-05T22:09:09.533Z,26.10
2023-03-05T22:11:44.495Z,24.60
2023-03-05T22:14:16.997Z,25.10
2023-03-05T22:16:55.487Z,24.50
2023-03-05T22:19:27.324Z,24.70
2023-03-05T22:21:59.292Z,24.80
2023-03-05T22:24:31.206Z,28.20
2023-03-05T22:27:02.884Z,27.90
2023-03-05T22:29:36.868Z,29.00
2023-03-05T22:32:09.782Z,27.50
2023-03-05T22:34:41.437Z,26.00
2023-03-05T22:37:13.171Z,24.90
2023-03-05T22:39:44.783Z,23.70
2023-03-05T22:42:16.698Z,26.70
2023-03-05T22:44:48.452Z,27.20
2023-03-05T22:47:20.203Z,28.10
2023-03-05T22:49:51.778Z,26.20
2023-03-05T22:52:25.351Z,27.50
2023-03-05T22:54:57.120Z,27.20
2023-03-05T22:57:29.105Z,26.80
2023-03-05T23:00:00.982Z,29.10
2023-03-05T23:02:33.098Z,27.70
2023-03-05T23:05:04.932Z,31.10
2023-03-05T23:07:38.546Z,29.20
2023-03-05T23:10:14.611Z,35.10
2023-03-05T23:12:49.718Z,33.00
2023-03-05T23:15:26.950Z,34.50
2023-03-05T23:17:58.825Z,34.00
2023-03-05T23:20:32.857Z,34.50
2023-03-05T23:23:05.841Z,33.40
2023-03-05T23:25:38.407Z,30.90
2023-03-05T23:28:10.838Z,31.20
2023-03-05T23:30:43.640Z,32.20
2023-03-05T23:33:18.569Z,33.90
2023-03-05T23:35:55.718Z,34.40
2023-03-05T23:38:29.121Z,33.30
2023-03-05T23:41:03.730Z,31.40
2023-03-05T23:46:05.319Z,26.20
2023-03-05T23:48:36.957Z,26.60
2023-03-05T23:51:12.475Z,29.10
2023-03-05T23:53:44.039Z,23.20
2023-03-05T23:56:15.841Z,26.20
2023-03-05T23:58:47.693Z,26.60
